createdAt,value
2022-11-16T00:01:00.040Z,81.28
2022-11-16T00:04:03.592Z,81.20
2022-11-16T00:07:06.277Z,81.38
2022-11-16T00:10:08.454Z,81.50
2022-11-16T00:13:10.261Z,81.46
2022-11-16T00:16:16.755Z,81.21
2022-11-16T00:19:19.067Z,81.54
2022-11-16T00:22:20.928Z,81.90
2022-11-16T00:25:22.711Z,82.05
2022-11-16T00:28:24.630Z,82.22
2022-11-16T00:31:26.439Z,81.95
2022-11-16T00:34:28.361Z,82.36
2022-11-16T00:37:30.161Z,82.30
2022-11-16T00:40:32.121Z,82.27
2022-11-16T00:43:34.950Z,82.37
2022-11-16T00:46:37.226Z,83.03
2022-11-16T00:49:39.094Z,82.71
2022-11-16T00:52:41.242Z,82.94
2022-11-16T00:55:44.323Z,83.35
2022-11-16T00:58:46.125Z,83.97
2022-11-16T01:01:48.189Z,83.57
2022-11-16T01:04:50.248Z,83.75
2022-11-16T01:07:52.191Z,84.06
2022-11-16T01:10:54.105Z,83.90
2022-11-16T01:13:55.949Z,83.91
2022-11-16T01:16:57.806Z,84.21
2022-11-16T01:19:59.591Z,84.08
2022-11-16T01:23:01.446Z,84.30
2022-11-16T01:26:03.474Z,84.77
2022-11-16T01:29:09.130Z,84.88
2022-11-16T01:32:15.689Z,84.79
2022-11-16T01:35:19.309Z,84.89
2022-11-16T01:38:27.143Z,85.15
2022-11-16T01:41:33.254Z,84.96
2022-11-16T01:44:39.007Z,85.39
2022-11-16T01:47:48.913Z,85.48
2022-11-16T01:50:56.458Z,85.61
2022-11-16T01:54:01.439Z,85.94
2022-11-16T01:57:06.378Z,86.01
2022-11-16T02:00:14.550Z,86.15
2022-11-16T02:03:22.288Z,86.10
2022-11-16T02:10:02.234Z,86.58
2022-11-16T02:13:34.894Z,86.59
2022-11-16T02:16:49.588Z,86.61
2022-11-16T02:20:20.655Z,86.86
2022-11-16T02:23:41.107Z,86.67
2022-11-16T02:27:16.623Z,86.67
2022-11-16T02:30:26.479Z,86.88
2022-11-16T02:33:36.208Z,86.96
2022-11-16T02:36:42.260Z,86.65
2022-11-16T02:39:48.220Z,87.00
2022-11-16T02:42:58.161Z,86.92
2022-11-16T02:46:04.289Z,87.39
2022-11-16T02:49:15.150Z,87.20
2022-11-16T02:52:18.709Z,87.08
2022-11-16T02:55:25.930Z,87.31
2022-11-16T02:58:29.218Z,87.40
2022-11-16T03:01:38.186Z,87.36
2022-11-16T03:04:48.954Z,87.28
2022-11-16T03:07:58.160Z,87.16
2022-11-16T03:11:22.402Z,87.33
2022-11-16T03:14:36.137Z,87.56
2022-11-16T03:17:42.317Z,87.57
2022-11-16T03:20:48.236Z,87.50
2022-11-16T03:23:50.757Z,87.13
2022-11-16T03:26:59.527Z,87.53
2022-11-16T03:30:13.452Z,87.90
2022-11-16T03:33:32.637Z,87.71
2022-11-16T03:36:39.482Z,87.63
2022-11-16T03:39:42.716Z,87.53
2022-11-16T03:42:46.554Z,87.86
2022-11-16T03:45:49.153Z,87.96
2022-11-16T03:48:57.881Z,88.06
2022-11-16T03:52:02.369Z,88.06
2022-11-16T03:55:06.432Z,87.98
2022-11-16T03:58:09.468Z,88.32
2022-11-16T04:01:13.528Z,88.09
2022-11-16T04:04:35.619Z,88.13
2022-11-16T04:07:57.081Z,87.97
2022-11-16T04:11:17.991Z,88.25
2022-11-16T04:14:42.008Z,88.24
2022-11-16T04:18:06.099Z,88.05
2022-11-16T04:21:53.415Z,88.34
2022-11-16T04:25:08.295Z,88.07
2022-11-16T04:28:13.805Z,88.13
2022-11-16T04:31:38.533Z,88.31
2022-11-16T04:35:03.259Z,88.15
2022-11-16T04:38:05.325Z,88.39
2022-11-16T04:41:29.744Z,88.28
2022-11-16T04:44:55.209Z,88.39
2022-11-16T04:48:00.303Z,88.35
2022-11-16T04:51:05.867Z,88.26
2022-11-16T04:54:09.021Z,88.40
2022-11-16T04:57:10.900Z,88.08
2022-11-16T05:00:13.398Z,88.30
2022-11-16T05:03:15.562Z,88.38
2022-11-16T05:06:17.775Z,88.30
2022-11-16T05:09:20.334Z,88.09
2022-11-16T05:12:27.917Z,88.32
2022-11-16T05:15:33.471Z,88.30
2022-11-16T05:18:36.346Z,88.42
2022-11-16T05:21:38.674Z,88.66
2022-11-16T05:24:41.230Z,88.58
2022-11-16T05:27:43.109Z,88.75
2022-11-16T05:30:46.265Z,88.70
2022-11-16T05:33:52.047Z,88.67
2022-11-16T05:36:55.711Z,88.52
2022-11-16T05:39:57.801Z,88.64
2022-11-16T05:43:09.423Z,89.08
2022-11-16T05:46:17.302Z,88.82
2022-11-16T05:49:20.813Z,88.69
2022-11-16T09:54:17.610Z,97.01
2022-11-16T15:40:54.927Z,100.00
2022-11-16T15:44:13.948Z,99.52
2022-11-16T15:47:17.336Z,99.05
2022-11-16T15:50:23.267Z,98.65
2022-11-16T15:53:52.791Z,98.32
2022-11-16T15:57:08.103Z,97.90
2022-11-16T16:00:22.459Z,97.87
2022-11-16T16:03:26.911Z,97.66
2022-11-16T16:06:58.038Z,97.72
2022-11-16T16:10:35.506Z,97.58
2022-11-16T16:13:41.750Z,97.48
2022-11-16T16:16:49.497Z,97.59
2022-11-16T16:20:04.099Z,97.52
2022-11-16T16:23:08.964Z,97.21
2022-11-16T16:26:10.909Z,97.28
2022-11-16T16:29:12.723Z,97.16
2022-11-16T16:32:19.653Z,97.05
2022-11-16T16:35:23.652Z,97.27
2022-11-16T16:38:26.089Z,96.88
2022-11-16T16:41:28.626Z,96.72
2022-11-16T16:44:30.574Z,96.59
2022-11-16T16:47:33.086Z,96.71
2022-11-16T16:50:35.781Z,96.72
2022-11-16T16:53:37.706Z,96.57
2022-11-16T16:56:42.086Z,96.42
2022-11-16T16:59:47.467Z,96.37
2022-11-16T17:02:52.777Z,96.09
2022-11-16T17:05:59.993Z,96.13
2022-11-16T17:09:02.715Z,96.28
2022-11-16T17:12:06.513Z,96.22
2022-11-16T17:15:08.777Z,96.18
2022-11-16T17:18:10.688Z,96.11
2022-11-16T17:21:13.842Z,96.16
2022-11-16T17:24:16.253Z,96.46
2022-11-16T17:27:18.206Z,96.40
2022-11-16T17:30:23.045Z,96.16
2022-11-16T17:33:25.690Z,96.38
2022-11-16T17:36:28.605Z,96.36
2022-11-16T17:39:30.427Z,96.34
2022-11-16T17:42:35.619Z,96.15
2022-11-16T17:45:39.159Z,96.13
2022-11-16T17:48:44.040Z,96.51
2022-11-16T17:51:47.877Z,96.53
2022-11-16T17:54:49.806Z,96.50
2022-11-16T17:57:54.629Z,96.35
2022-11-16T18:00:58.809Z,96.17
2022-11-16T18:04:03.041Z,96.14
2022-11-16T18:07:05.327Z,96.52
2022-11-16T18:10:08.029Z,96.38
2022-11-16T18:13:10.057Z,96.28
2022-11-16T18:16:18.268Z,96.19
2022-11-16T18:19:20.852Z,96.40
2022-11-16T18:22:24.554Z,96.14
2022-11-16T18:25:27.820Z,96.11
2022-11-16T18:28:32.025Z,95.98
2022-11-16T18:31:34.075Z,95.92
2022-11-16T18:34:39.528Z,96.06
2022-11-16T18:37:43.228Z,96.13
2022-11-16T18:40:46.017Z,95.78
2022-11-16T18:44:00.861Z,95.87
2022-11-16T18:47:04.746Z,95.86
2022-11-16T18:50:20.059Z,95.98
2022-11-16T18:53:24.693Z,95.66
2022-11-16T18:56:27.355Z,95.89
2022-11-16T18:59:33.267Z,95.80
2022-11-16T19:02:39.196Z,95.58
2022-11-16T19:05:42.542Z,95.84
2022-11-16T19:08:52.168Z,95.99
2022-11-16T19:11:57.110Z,96.04
2022-11-16T19:14:59.515Z,95.94
2022-11-16T19:18:20.566Z,95.68
2022-11-16T19:21:24.231Z,95.55
2022-11-16T19:24:30.094Z,95.64
2022-11-16T19:27:32.671Z,95.58
2022-11-16T19:30:35.684Z,95.70
2022-11-16T19:33:40.425Z,95.71
2022-11-16T19:36:43.470Z,95.60
2022-11-16T19:39:46.513Z,95.65
2022-11-16T19:42:48.572Z,95.91
2022-11-16T19:45:51.161Z,95.92
2022-11-16T19:48:56.126Z,95.92
2022-11-16T19:52:00.044Z,95.58
2022-11-16T19:55:03.501Z,95.87
2022-11-16T19:58:06.636Z,95.76
2022-11-16T20:01:20.321Z,95.78
2022-11-16T20:04:22.297Z,95.96
2022-11-16T20:07:24.283Z,96.06
2022-11-16T20:10:29.291Z,95.50
2022-11-16T20:13:31.249Z,95.63
2022-11-16T20:16:38.997Z,95.37
2022-11-16T20:19:41.849Z,95.24
2022-11-16T20:22:44.092Z,95.18
2022-11-16T20:25:46.982Z,95.19
2022-11-16T20:28:51.158Z,95.32
2022-11-16T20:31:53.078Z,95.46
2022-11-16T20:34:55.041Z,95.64
2022-11-16T20:37:56.919Z,95.24
2022-11-16T20:41:06.589Z,94.99
2022-11-16T20:44:16.325Z,95.24
2022-11-16T20:47:18.826Z,95.18
2022-11-16T20:50:21.592Z,95.19
2022-11-16T20:53:23.674Z,95.22
2022-11-16T20:56:27.027Z,95.10
2022-11-16T20:59:28.881Z,95.08
2022-11-16T21:02:31.180Z,94.86
2022-11-16T21:05:33.011Z,94.85
2022-11-16T21:08:36.718Z,94.85
2022-11-16T21:11:56.912Z,94.76
2022-11-16T21:14:58.772Z,94.88
2022-11-16T21:18:00.837Z,94.66
2022-11-16T21:21:13.677Z,94.53
2022-11-16T21:24:17.863Z,94.58
2022-11-16T21:27:19.790Z,94.82
2022-11-16T21:30:21.776Z,94.70
2022-11-16T21:33:24.054Z,94.59
2022-11-16T21:36:27.958Z,94.44
2022-11-16T21:39:29.897Z,94.60
2022-11-16T21:42:31.853Z,94.71
2022-11-16T21:45:35.283Z,94.61
2022-11-16T21:48:37.673Z,94.60
2022-11-16T21:51:39.487Z,94.38
2022-11-16T21:54:59.383Z,94.23
2022-11-16T21:58:03.633Z,94.38
2022-11-16T22:01:05.726Z,94.49
2022-11-16T22:04:26.260Z,94.21
2022-11-16T22:07:33.702Z,94.39
2022-11-16T22:10:35.743Z,94.06
2022-11-16T22:13:38.401Z,94.24
2022-11-16T22:16:40.323Z,94.22
2022-11-16T22:19:42.266Z,94.31
2022-11-16T22:22:44.252Z,94.43
2022-11-16T22:25:46.198Z,94.09
2022-11-16T22:28:48.291Z,94.17
2022-11-16T22:31:50.152Z,94.00
2022-11-16T22:34:52.173Z,94.01
2022-11-16T22:37:54.130Z,94.07
2022-11-16T22:40:57.381Z,94.18
2022-11-16T22:43:59.310Z,94.17
2022-11-16T22:47:01.869Z,94.34
2022-11-16T22:50:04.226Z,93.96
2022-11-16T22:53:06.073Z,93.97
2022-11-16T22:56:09.402Z,94.15
2022-11-16T22:59:11.394Z,94.03
2022-11-16T23:02:13.289Z,93.98
2022-11-16T23:05:15.312Z,93.74
2022-11-16T23:08:17.223Z,94.02
2022-11-16T23:11:44.546Z,94.12
2022-11-16T23:15:05.050Z,94.00
2022-11-16T23:18:06.997Z,94.13
2022-11-16T23:21:27.817Z,94.01
2022-11-16T23:24:48.480Z,93.79
2022-11-16T23:27:54.469Z,94.07
2022-11-16T23:30:56.337Z,93.70
2022-11-16T23:33:58.209Z,94.24
2022-11-16T23:37:07.617Z,93.78
2022-11-16T23:40:10.041Z,93.96
2022-11-16T23:43:30.436Z,94.05
2022-11-16T23:46:33.789Z,94.18
2022-11-16T23:49:35.674Z,93.71
2022-11-16T23:52:37.656Z,94.06
2022-11-16T23:55:40.480Z,94.26
2022-11-16T23:58:42.438Z,93.93
